createdAt,value
2023-05-23T00:04:58.477Z,22.20
2023-05-23T00:11:02.761Z,22.90
2023-05-23T00:17:05.681Z,21.83
2023-05-23T00:23:19.067Z,21.10
2023-05-23T00:29:21.905Z,14.00
2023-05-23T00:35:25.006Z,18.27
2023-05-23T00:41:30.795Z,20.00
2023-05-23T00:47:33.071Z,19.73
2023-05-23T00:53:36.938Z,17.60
2023-05-23T00:59:39.832Z,19.42
2023-05-23T01:05:42.559Z,16.80
2023-05-23T01:12:14.766Z,16.67
2023-05-23T01:18:38.501Z,17.60
2023-05-23T01:24:55.250Z,16.70
2023-05-23T01:30:59.809Z,20.13
2023-05-23T01:37:02.207Z,15.73
2023-05-23T01:43:04.676Z,18.20
2023-05-23T01:49:10.812Z,17.60
2023-05-23T01:55:18.761Z,19.20
2023-05-23T02:01:22.002Z,23.83
2023-05-23T02:07:24.093Z,23.27
2023-05-23T02:13:26.331Z,26.52
2023-05-23T02:19:28.833Z,22.65
2023-05-23T02:25:31.025Z,19.85
2023-05-23T02:31:33.825Z,18.48
2023-05-23T02:37:35.994Z,20.10
2023-05-23T02:43:39.646Z,13.45
2023-05-23T02:49:41.948Z,14.95
2023-05-23T02:55:50.622Z,13.82
2023-05-23T03:02:08.452Z,14.38
2023-05-23T03:08:11.090Z,11.45
2023-05-23T03:14:16.872Z,12.43
2023-05-23T03:20:19.166Z,13.57
2023-05-23T03:26:22.185Z,13.60
2023-05-23T03:32:24.833Z,18.13
2023-05-23T03:38:28.051Z,16.98
2023-05-23T03:44:30.454Z,19.02
2023-05-23T03:50:32.447Z,20.70
2023-05-23T03:56:34.457Z,18.65
2023-05-23T04:02:36.896Z,21.20
2023-05-23T04:08:42.215Z,23.27
2023-05-23T04:14:44.410Z,19.88
2023-05-23T04:20:48.256Z,24.05
2023-05-23T04:26:50.490Z,23.88
2023-05-23T04:32:53.839Z,23.05
2023-05-23T04:38:55.895Z,22.97
2023-05-23T04:44:58.424Z,29.85
2023-05-23T04:51:02.406Z,30.40
2023-05-23T04:57:04.350Z,28.70
2023-05-23T05:03:06.404Z,30.48
2023-05-23T05:09:08.273Z,30.27
2023-05-23T05:15:10.677Z,32.80
2023-05-23T05:21:14.560Z,28.17
2023-05-23T05:27:16.497Z,31.77
2023-05-23T05:33:20.670Z,31.20
2023-05-23T05:39:25.199Z,28.15
2023-05-23T05:45:27.228Z,28.17
2023-05-23T05:51:29.613Z,29.48
2023-05-23T05:57:31.682Z,29.65
2023-05-23T06:03:34.095Z,20.65
2023-05-23T06:09:36.500Z,28.13
2023-05-23T06:15:38.289Z,28.38
2023-05-23T06:21:40.677Z,20.17
2023-05-23T06:27:42.584Z,22.58
2023-05-23T06:33:44.559Z,20.25
2023-05-23T06:39:46.495Z,25.52
2023-05-23T06:45:48.569Z,21.30
2023-05-23T06:51:51.379Z,23.00
2023-05-23T06:57:53.466Z,22.25
2023-05-23T07:03:55.721Z,20.25
2023-05-23T07:09:57.587Z,22.38
2023-05-23T07:15:59.644Z,23.23
2023-05-23T07:22:01.696Z,32.13
2023-05-23T07:28:03.680Z,26.60
2023-05-23T07:34:05.862Z,25.83
2023-05-23T07:40:09.534Z,13.80
2023-05-23T07:46:11.682Z,15.63
2023-05-23T07:52:13.763Z,15.07
2023-05-23T07:58:15.676Z,15.82
2023-05-23T08:04:18.622Z,9.65
2023-05-23T08:10:20.739Z,10.10
2023-05-23T08:16:23.085Z,8.40
2023-05-23T08:22:26.303Z,4.85
2023-05-23T08:28:28.256Z,5.95
2023-05-23T08:34:30.088Z,6.13
2023-05-23T08:40:34.384Z,5.03
2023-05-23T08:52:55.971Z,5.22
2023-05-23T08:58:58.530Z,3.50
2023-05-23T09:05:01.134Z,5.45
2023-05-23T09:11:04.860Z,4.25
2023-05-23T09:17:07.404Z,7.73
2023-05-23T09:23:09.258Z,8.20
2023-05-23T09:29:11.086Z,11.95
2023-05-23T09:35:14.316Z,9.55
2023-05-23T09:41:16.509Z,14.77
2023-05-23T09:47:18.820Z,18.20
2023-05-23T09:53:22.745Z,17.50
2023-05-23T09:59:31.294Z,15.57
2023-05-23T10:05:50.234Z,15.25
2023-05-23T10:12:34.027Z,20.35
2023-05-23T10:18:43.210Z,15.43
2023-05-23T10:24:48.953Z,19.67
2023-05-23T10:30:51.520Z,15.63
2023-05-23T10:37:02.449Z,18.33
2023-05-23T10:43:17.127Z,14.93
2023-05-23T10:49:19.018Z,14.82
2023-05-23T10:55:21.110Z,12.43
2023-05-23T11:01:23.926Z,16.38
2023-05-23T11:07:30.884Z,20.77
2023-05-23T11:14:00.099Z,15.93
2023-05-23T11:20:07.421Z,15.88
2023-05-23T11:26:32.420Z,17.17
2023-05-23T11:32:36.920Z,11.05
2023-05-23T11:44:40.849Z,14.27
2023-05-23T11:50:49.024Z,14.68
2023-05-23T11:56:51.314Z,16.83
2023-05-23T12:02:53.300Z,17.88
2023-05-23T12:08:55.481Z,18.15
2023-05-23T12:14:57.623Z,17.33
2023-05-23T12:21:05.935Z,16.35
2023-05-23T12:27:10.268Z,17.02
2023-05-23T12:33:15.546Z,19.38
2023-05-23T12:39:24.261Z,19.00
2023-05-23T12:45:34.122Z,13.32
2023-05-23T12:51:36.560Z,13.60
2023-05-23T12:57:38.807Z,13.23
2023-05-23T13:03:40.811Z,15.75
2023-05-23T13:09:42.978Z,11.63
2023-05-23T13:15:46.301Z,14.70
2023-05-23T13:21:49.992Z,10.27
2023-05-23T13:27:56.041Z,11.70
2023-05-23T13:33:57.907Z,15.60
2023-05-23T13:40:03.707Z,16.17
2023-05-23T13:46:05.762Z,12.93
2023-05-23T13:52:08.130Z,11.93
2023-05-23T13:58:10.041Z,15.82
2023-05-23T14:04:11.899Z,11.75
2023-05-23T14:10:15.261Z,8.02
2023-05-23T14:16:17.168Z,11.97
2023-05-23T14:22:19.091Z,13.45
2023-05-23T14:28:21.048Z,13.88
2023-05-23T14:34:23.007Z,11.90
2023-05-23T14:40:24.834Z,10.10
2023-05-23T14:46:26.758Z,7.95
2023-05-23T14:52:28.765Z,9.32
2023-05-23T14:58:31.522Z,12.70
2023-05-23T15:04:33.815Z,8.65
2023-05-23T15:10:35.697Z,8.60
2023-05-23T15:16:37.780Z,13.20
2023-05-23T15:22:40.967Z,10.20
2023-05-23T15:28:42.849Z,9.65
2023-05-23T15:34:44.732Z,11.30
2023-05-23T15:40:48.925Z,9.40
2023-05-23T15:46:52.040Z,12.00
2023-05-23T15:52:53.867Z,12.50
2023-05-23T15:58:57.462Z,11.65
2023-05-23T16:04:59.446Z,13.10
2023-05-23T16:11:01.257Z,11.55
2023-05-23T16:17:05.162Z,10.02
2023-05-23T16:23:06.990Z,12.98
2023-05-23T16:29:08.843Z,12.63
2023-05-23T16:35:13.812Z,14.45
2023-05-23T16:41:16.238Z,7.88
2023-05-23T16:47:18.135Z,9.00
2023-05-23T16:53:20.022Z,11.07
2023-05-23T16:59:22.658Z,13.13
2023-05-23T17:05:25.410Z,11.48
2023-05-23T17:11:27.627Z,7.07
2023-05-23T17:17:29.863Z,9.02
2023-05-23T17:23:32.923Z,15.37
2023-05-23T17:29:34.972Z,15.90
2023-05-23T17:35:36.865Z,12.90
2023-05-23T17:41:38.810Z,13.23
2023-05-23T17:47:41.704Z,10.55
2023-05-23T17:53:43.973Z,9.65
2023-05-23T17:59:45.987Z,11.90
2023-05-23T18:05:48.012Z,13.23
2023-05-23T18:11:49.884Z,7.90
2023-05-23T18:17:55.650Z,15.15
2023-05-23T18:23:57.652Z,12.88
2023-05-23T18:29:59.551Z,11.90
2023-05-23T18:36:01.722Z,10.73
2023-05-23T18:42:03.700Z,13.20
2023-05-23T18:48:06.017Z,12.82
2023-05-23T18:54:07.978Z,11.27
2023-05-23T19:00:11.650Z,13.13
2023-05-23T19:06:13.624Z,11.20
2023-05-23T19:12:15.633Z,13.00
2023-05-23T19:18:18.829Z,10.43
2023-05-23T19:24:20.944Z,12.23
2023-05-23T19:30:23.825Z,9.23
2023-05-23T19:36:25.774Z,14.57
2023-05-23T19:42:28.111Z,13.38
2023-05-23T19:48:30.033Z,7.22
2023-05-23T19:54:32.047Z,9.98
2023-05-23T20:00:34.353Z,14.57
2023-05-23T20:06:36.987Z,8.77
2023-05-23T20:12:40.110Z,5.97
2023-05-23T20:18:43.102Z,12.73
2023-05-23T20:24:47.110Z,10.70
2023-05-23T20:30:49.186Z,11.35
2023-05-23T20:36:51.046Z,13.77
2023-05-23T20:42:53.554Z,8.98
2023-05-23T20:48:57.563Z,15.95
2023-05-23T20:55:01.152Z,14.65
2023-05-23T21:01:03.403Z,13.40
2023-05-23T21:07:05.400Z,9.75
2023-05-23T21:13:07.358Z,13.82
2023-05-23T21:19:09.356Z,11.18
2023-05-23T21:25:11.508Z,9.82
2023-05-23T21:31:13.733Z,11.18
2023-05-23T21:37:15.696Z,13.07
2023-05-23T21:43:17.828Z,13.73
2023-05-23T21:49:19.680Z,9.30
2023-05-23T21:55:21.500Z,18.73
2023-05-23T22:01:23.409Z,11.68
2023-05-23T22:07:26.009Z,11.02
2023-05-23T22:13:27.879Z,21.52
2023-05-23T22:19:30.410Z,17.08
2023-05-23T22:25:32.842Z,12.45
2023-05-23T22:31:36.447Z,11.50
2023-05-23T22:37:38.254Z,16.40
2023-05-23T22:43:40.243Z,13.63
2023-05-23T22:49:42.661Z,16.70
2023-05-23T22:55:44.496Z,14.75
2023-05-23T23:01:54.109Z,12.80
2023-05-23T23:07:56.567Z,29.17
2023-05-23T23:13:59.876Z,14.60
2023-05-23T23:20:02.005Z,14.02
2023-05-23T23:26:04.599Z,6.35
2023-05-23T23:32:07.735Z,12.23
2023-05-23T23:38:09.664Z,16.90
2023-05-23T23:44:11.873Z,8.90
2023-05-23T23:50:14.945Z,13.35
2023-05-23T23:56:16.765Z,9.68
